createdAt,value
2022-11-21T00:01:14.709Z,-3.70
2022-11-21T00:03:41.219Z,-3.57
2022-11-21T00:06:07.786Z,-3.49
2022-11-21T00:08:34.930Z,-3.57
2022-11-21T00:11:01.475Z,-3.45
2022-11-21T00:13:27.941Z,-3.56
2022-11-21T00:15:54.464Z,-3.58
2022-11-21T00:18:20.897Z,-3.59
2022-11-21T00:20:47.358Z,-3.63
2022-11-21T00:23:13.975Z,-3.56
2022-11-21T00:25:40.448Z,-3.41
2022-11-21T00:28:06.925Z,-3.37
2022-11-21T00:30:34.095Z,-3.48
2022-11-21T00:33:00.625Z,-3.33
2022-11-21T00:35:27.352Z,-3.37
2022-11-21T00:37:53.799Z,-3.36
2022-11-21T00:40:20.334Z,-3.39
2022-11-21T00:42:46.937Z,-3.38
2022-11-21T00:45:13.564Z,-3.40
2022-11-21T00:47:39.986Z,-3.36
2022-11-21T00:50:06.767Z,-3.49
2022-11-21T00:52:33.786Z,-3.34
2022-11-21T00:55:00.466Z,-3.33
2022-11-21T00:57:26.980Z,-3.29
2022-11-21T00:59:53.567Z,-3.27
2022-11-21T01:02:20.028Z,-3.30
2022-11-21T01:04:46.521Z,-3.27
2022-11-21T01:07:14.639Z,-3.27
2022-11-21T01:09:41.278Z,-3.30
2022-11-21T01:12:07.846Z,-3.28
2022-11-21T01:14:35.120Z,-3.26
2022-11-21T01:17:01.617Z,-3.26
2022-11-21T01:19:28.059Z,-3.33
2022-11-21T01:21:54.502Z,-3.42
2022-11-21T01:24:21.047Z,-3.41
2022-11-21T01:26:49.079Z,-3.38
2022-11-21T01:29:15.507Z,-3.36
2022-11-21T01:31:41.980Z,-3.35
2022-11-21T01:34:08.436Z,-3.54
2022-11-21T01:36:35.388Z,-3.51
2022-11-21T01:39:04.755Z,-3.58
2022-11-21T01:41:37.282Z,-3.53
2022-11-21T01:44:14.146Z,-3.57
2022-11-21T01:46:40.746Z,-3.61
2022-11-21T01:49:14.168Z,-3.61
2022-11-21T01:51:54.460Z,-3.62
2022-11-21T01:54:40.703Z,-3.66
2022-11-21T01:57:35.235Z,-3.60
2022-11-21T02:00:06.980Z,-3.72
2022-11-21T02:02:36.885Z,-3.85
2022-11-21T02:05:05.244Z,-4.03
2022-11-21T02:07:36.018Z,-4.06
2022-11-21T02:10:03.459Z,-4.01
2022-11-21T02:12:34.903Z,-4.14
2022-11-21T02:15:01.900Z,-4.03
2022-11-21T02:17:31.452Z,-3.98
2022-11-21T02:19:59.863Z,-4.02
2022-11-21T02:22:39.787Z,-4.18
2022-11-21T02:25:12.863Z,-4.15
2022-11-21T02:27:39.443Z,-4.12
2022-11-21T02:30:08.605Z,-4.15
2022-11-21T02:32:38.116Z,-4.16
2022-11-21T02:35:05.488Z,-4.14
2022-11-21T02:37:32.538Z,-4.11
2022-11-21T02:40:01.751Z,-4.13
2022-11-21T02:42:32.402Z,-4.14
2022-11-21T02:45:19.668Z,-4.09
2022-11-21T02:47:47.063Z,-4.01
2022-11-21T02:50:16.851Z,-4.07
2022-11-21T02:52:43.311Z,-4.18
2022-11-21T02:55:11.597Z,-4.11
2022-11-21T02:57:39.721Z,-4.12
2022-11-21T03:00:06.721Z,-4.27
2022-11-21T03:02:35.697Z,-4.16
2022-11-21T03:05:02.763Z,-4.15
2022-11-21T03:07:29.338Z,-4.15
2022-11-21T03:09:55.901Z,-4.16
2022-11-21T03:12:22.442Z,-4.10
2022-11-21T03:14:49.076Z,-4.13
2022-11-21T03:17:15.522Z,-4.08
2022-11-21T03:19:41.994Z,-4.16
2022-11-21T03:22:08.779Z,-4.30
2022-11-21T03:24:35.492Z,-4.33
2022-11-21T03:27:02.062Z,-4.39
2022-11-21T03:29:28.634Z,-4.27
2022-11-21T03:31:55.221Z,-4.31
2022-11-21T03:34:21.772Z,-4.27
2022-11-21T03:36:48.394Z,-4.24
2022-11-21T03:39:14.954Z,-4.34
2022-11-21T03:41:41.437Z,-4.31
2022-11-21T03:44:10.036Z,-4.40
2022-11-21T03:46:38.310Z,-4.42
2022-11-21T03:49:05.540Z,-4.35
2022-11-21T03:51:32.353Z,-4.36
2022-11-21T03:53:59.415Z,-4.28
2022-11-21T03:56:26.398Z,-4.43
2022-11-21T03:58:53.696Z,-4.48
2022-11-21T04:01:20.659Z,-4.47
2022-11-21T04:03:47.482Z,-4.38
2022-11-21T04:06:16.146Z,-4.37
2022-11-21T04:08:43.260Z,-4.39
2022-11-21T04:11:10.660Z,-4.35
2022-11-21T04:13:38.017Z,-4.37
2022-11-21T04:16:05.125Z,-4.47
2022-11-21T04:18:31.689Z,-4.49
2022-11-21T04:20:59.477Z,-4.47
2022-11-21T04:23:26.462Z,-4.46
2022-11-21T04:25:53.663Z,-4.52
2022-11-21T04:28:21.499Z,-4.51
2022-11-21T04:30:47.927Z,-4.54
2022-11-21T04:33:15.369Z,-4.56
2022-11-21T04:35:43.517Z,-4.57
2022-11-21T04:38:10.525Z,-4.58
2022-11-21T04:40:37.332Z,-4.57
2022-11-21T04:43:04.425Z,-4.58
2022-11-21T04:45:30.862Z,-4.64
2022-11-21T04:47:57.348Z,-4.70
2022-11-21T04:50:23.867Z,-4.71
2022-11-21T04:52:55.751Z,-4.80
2022-11-21T04:55:24.495Z,-4.80
2022-11-21T04:57:50.981Z,-4.84
2022-11-21T05:00:23.729Z,-4.79
2022-11-21T05:02:51.007Z,-4.69
2022-11-21T05:05:17.818Z,-4.80
2022-11-21T05:07:44.314Z,-4.95
2022-11-21T05:10:11.153Z,-5.03
2022-11-21T05:12:56.426Z,-5.07
2022-11-21T05:15:24.841Z,-5.05
2022-11-21T05:17:51.874Z,-5.15
2022-11-21T05:20:18.873Z,-5.17
2022-11-21T05:22:50.461Z,-5.12
2022-11-21T05:25:17.048Z,-5.08
2022-11-21T05:27:43.553Z,-5.14
2022-11-21T05:30:11.324Z,-5.03
2022-11-21T05:32:37.850Z,-5.08
2022-11-21T05:35:04.600Z,-5.05
2022-11-21T05:37:31.221Z,-4.98
2022-11-21T05:39:57.819Z,-4.97
2022-11-21T05:42:44.682Z,-5.00
2022-11-21T05:45:11.242Z,-5.24
2022-11-21T05:47:37.708Z,-5.45
2022-11-21T05:50:04.826Z,-5.41
2022-11-21T05:52:31.338Z,-5.43
2022-11-21T05:54:57.771Z,-5.48
2022-11-21T05:57:24.358Z,-5.35
2022-11-21T05:59:50.896Z,-5.55
2022-11-21T06:02:36.225Z,-5.64
2022-11-21T06:05:02.787Z,-5.76
2022-11-21T06:07:29.356Z,-5.70
2022-11-21T06:09:55.894Z,-5.79
2022-11-21T06:12:25.397Z,-5.81
2022-11-21T06:14:52.629Z,-5.81
2022-11-21T06:17:19.492Z,-5.74
2022-11-21T06:19:46.106Z,-5.60
2022-11-21T06:22:12.605Z,-5.54
2022-11-21T06:24:39.259Z,-5.51
2022-11-21T06:27:05.751Z,-5.36
2022-11-21T06:29:32.253Z,-5.30
2022-11-21T06:31:58.788Z,-5.21
2022-11-21T06:34:28.086Z,-5.32
2022-11-21T06:36:54.614Z,-5.25
2022-11-21T06:39:21.357Z,-5.26
2022-11-21T06:41:51.281Z,-5.04
2022-11-21T06:44:20.477Z,-4.98
2022-11-21T06:46:50.977Z,-4.90
2022-11-21T06:49:18.143Z,-4.84
2022-11-21T06:51:44.568Z,-4.77
2022-11-21T06:54:16.259Z,-4.64
2022-11-21T06:56:43.724Z,-4.68
2022-11-21T06:59:10.222Z,-4.60
2022-11-21T07:01:37.022Z,-4.60
2022-11-21T07:04:03.589Z,-4.68
2022-11-21T07:06:30.006Z,-4.73
2022-11-21T07:09:32.089Z,-4.65
2022-11-21T07:11:43.473Z,-4.61
2022-11-21T07:14:10.211Z,-4.54
2022-11-21T07:16:37.048Z,-4.36
2022-11-21T07:19:03.604Z,-4.34
2022-11-21T07:21:30.290Z,-4.32
2022-11-21T07:23:56.903Z,-4.15
2022-11-21T07:26:23.512Z,-4.08
2022-11-21T07:28:50.500Z,-3.96
2022-11-21T07:31:17.034Z,-3.99
2022-11-21T07:33:43.814Z,-4.05
2022-11-21T07:36:11.394Z,-3.85
2022-11-21T07:38:37.964Z,-3.74
2022-11-21T07:41:04.642Z,-3.66
2022-11-21T07:43:31.250Z,-3.69
2022-11-21T07:45:57.711Z,-3.54
2022-11-21T07:48:24.150Z,-3.55
2022-11-21T07:50:50.597Z,-3.51
2022-11-21T07:53:17.138Z,-3.37
2022-11-21T07:55:43.663Z,-3.22
2022-11-21T07:58:12.667Z,-3.02
2022-11-21T08:00:42.667Z,-2.81
2022-11-21T08:03:09.839Z,-2.85
2022-11-21T08:05:41.197Z,-2.86
2022-11-21T08:08:08.279Z,-2.67
2022-11-21T08:10:40.469Z,-2.56
2022-11-21T08:13:07.227Z,-1.83
2022-11-21T08:15:34.367Z,-0.65
2022-11-21T08:18:14.869Z,1.14
2022-11-21T08:20:42.029Z,3.30
2022-11-21T08:23:10.068Z,4.25
2022-11-21T08:25:40.163Z,6.72
2022-11-21T08:28:09.186Z,10.53
2022-11-21T08:30:36.581Z,12.43
2022-11-21T08:33:04.117Z,13.47
2022-11-21T08:35:30.972Z,13.68
2022-11-21T08:37:58.402Z,14.11
2022-11-21T08:40:26.473Z,14.97
2022-11-21T08:42:59.142Z,14.31
2022-11-21T08:45:26.941Z,13.67
2022-11-21T08:47:54.020Z,14.92
2022-11-21T08:50:20.991Z,15.35
2022-11-21T08:52:47.599Z,13.09
2022-11-21T08:55:14.287Z,12.84
2022-11-21T08:57:41.378Z,11.51
2022-11-21T09:00:09.597Z,9.92
2022-11-21T09:02:36.488Z,10.03
2022-11-21T09:05:03.142Z,9.91
2022-11-21T09:07:29.670Z,8.74
2022-11-21T09:09:56.136Z,7.82
2022-11-21T09:12:22.577Z,7.00
2022-11-21T09:15:07.558Z,6.09
2022-11-21T09:17:52.996Z,5.82
2022-11-21T09:20:19.554Z,6.18
2022-11-21T09:22:47.034Z,5.97
2022-11-21T09:25:13.802Z,4.58
2022-11-21T09:27:40.371Z,3.83
2022-11-21T09:30:07.572Z,3.70
2022-11-21T09:32:34.622Z,3.68
2022-11-21T09:35:01.306Z,3.72
2022-11-21T09:37:27.840Z,3.62
2022-11-21T09:39:54.333Z,3.51
2022-11-21T09:42:46.287Z,3.31
2022-11-21T09:45:13.170Z,2.68
2022-11-21T09:47:44.550Z,2.09
2022-11-21T09:50:13.724Z,1.44
2022-11-21T09:52:50.763Z,1.55
2022-11-21T09:55:26.632Z,1.65
2022-11-21T09:57:53.921Z,1.82
2022-11-21T10:00:25.182Z,1.69
2022-11-21T10:02:52.263Z,1.66
2022-11-21T10:05:26.135Z,1.17
2022-11-21T10:07:54.146Z,1.04
2022-11-21T10:10:55.377Z,1.38
2022-11-21T10:13:28.856Z,1.55
2022-11-21T10:16:06.064Z,2.01
2022-11-21T10:18:54.071Z,1.77
2022-11-21T10:21:53.958Z,1.64
2022-11-21T10:24:28.505Z,1.70
2022-11-21T10:26:59.144Z,2.13
2022-11-21T10:29:32.795Z,2.47
2022-11-21T10:32:03.734Z,2.66
2022-11-21T10:34:32.907Z,2.47
2022-11-21T10:37:09.084Z,2.33
2022-11-21T10:39:41.631Z,2.25
2022-11-21T10:42:39.300Z,2.59
2022-11-21T10:45:17.028Z,2.53
2022-11-21T10:47:45.135Z,2.26
2022-11-21T10:50:20.607Z,2.40
2022-11-21T10:52:51.367Z,2.20
2022-11-21T10:55:18.279Z,2.33
2022-11-21T10:57:51.967Z,2.17
2022-11-21T11:00:22.566Z,1.99
2022-11-21T11:03:00.282Z,1.88
2022-11-21T11:05:31.134Z,1.76
2022-11-21T11:08:10.616Z,1.59
2022-11-21T11:11:01.817Z,1.81
2022-11-21T11:13:46.940Z,1.74
2022-11-21T11:16:18.732Z,1.62
2022-11-21T11:18:47.977Z,1.42
2022-11-21T11:21:26.400Z,1.30
2022-11-21T11:23:54.026Z,0.84
2022-11-21T11:26:24.484Z,0.84
2022-11-21T11:28:51.693Z,0.88
2022-11-21T11:31:18.281Z,0.96
2022-11-21T11:33:47.348Z,1.07
2022-11-21T11:36:31.994Z,1.09
2022-11-21T11:38:59.700Z,1.10
2022-11-21T11:42:03.467Z,1.09
2022-11-21T11:44:59.777Z,1.14
2022-11-21T11:47:32.628Z,1.09
2022-11-21T11:50:13.083Z,1.02
2022-11-21T11:52:47.071Z,1.08
2022-11-21T11:55:22.051Z,1.15
2022-11-21T11:57:50.938Z,1.23
2022-11-21T12:00:32.748Z,1.24
2022-11-21T12:03:15.164Z,1.11
2022-11-21T12:06:08.959Z,1.11
2022-11-21T12:08:44.813Z,1.18
2022-11-21T12:11:41.083Z,1.14
2022-11-21T12:14:35.470Z,1.09
2022-11-21T12:17:05.303Z,1.02
2022-11-21T12:19:32.068Z,1.08
2022-11-21T12:21:58.642Z,1.14
2022-11-21T12:24:25.094Z,1.10
2022-11-21T12:27:28.280Z,1.10
2022-11-21T12:30:14.712Z,1.13
2022-11-21T12:33:09.253Z,1.40
2022-11-21T12:35:35.808Z,1.33
2022-11-21T12:38:21.988Z,1.22
2022-11-21T12:41:27.043Z,1.33
2022-11-21T12:44:07.423Z,1.30
2022-11-21T12:46:52.539Z,1.34
2022-11-21T12:49:56.402Z,1.48
2022-11-21T12:52:44.248Z,1.43
2022-11-21T12:55:35.532Z,1.31
2022-11-21T12:58:17.813Z,1.31
2022-11-21T13:01:06.959Z,1.43
2022-11-21T13:03:44.970Z,1.37
2022-11-21T13:06:33.897Z,1.30
2022-11-21T13:09:02.584Z,1.34
2022-11-21T13:11:58.916Z,1.46
2022-11-21T13:14:29.965Z,1.49
2022-11-21T13:17:11.965Z,1.44
2022-11-21T13:19:58.068Z,1.33
2022-11-21T13:22:36.579Z,1.16
2022-11-21T13:25:40.913Z,1.11
2022-11-21T13:28:13.879Z,1.04
2022-11-21T13:30:54.063Z,0.97
2022-11-21T13:33:35.993Z,0.91
2022-11-21T13:36:06.051Z,0.93
2022-11-21T13:38:55.849Z,0.84
2022-11-21T13:41:54.724Z,0.85
2022-11-21T13:44:35.595Z,0.85
2022-11-21T13:47:12.464Z,0.84
2022-11-21T13:50:17.096Z,0.75
2022-11-21T13:53:04.795Z,0.66
2022-11-21T13:56:29.993Z,0.71
2022-11-21T13:59:24.578Z,0.70
2022-11-21T14:02:39.693Z,0.70
2022-11-21T14:05:36.983Z,0.63
2022-11-21T14:08:33.851Z,0.68
2022-11-21T14:11:19.251Z,0.69
2022-11-21T14:13:48.499Z,0.69
2022-11-21T14:16:29.496Z,0.60
2022-11-21T14:18:56.407Z,0.59
2022-11-21T14:21:27.185Z,0.59
2022-11-21T14:23:57.440Z,0.49
2022-11-21T14:26:25.581Z,0.56
2022-11-21T14:28:52.277Z,0.60
2022-11-21T14:31:19.199Z,0.71
2022-11-21T14:33:47.578Z,0.71
2022-11-21T14:36:14.972Z,0.69
2022-11-21T14:38:44.298Z,0.65
2022-11-21T14:41:28.912Z,0.56
2022-11-21T14:43:58.795Z,0.46
2022-11-21T14:46:27.404Z,0.46
2022-11-21T14:48:54.186Z,0.45
2022-11-21T14:51:22.556Z,0.37
2022-11-21T14:53:50.853Z,0.46
2022-11-21T14:56:21.144Z,0.38
2022-11-21T14:58:48.212Z,0.35
2022-11-21T15:01:22.527Z,0.33
2022-11-21T15:04:15.595Z,0.28
2022-11-21T15:06:43.990Z,0.25
2022-11-21T15:10:25.504Z,0.25
2022-11-21T15:12:06.030Z,0.22
2022-11-21T15:14:43.558Z,0.21
2022-11-21T15:17:16.097Z,0.22
2022-11-21T15:19:43.485Z,0.29
2022-11-21T15:22:23.517Z,0.19
2022-11-21T15:24:50.610Z,0.22
2022-11-21T15:27:44.226Z,0.19
2022-11-21T15:30:10.576Z,0.20
2022-11-21T15:33:03.230Z,0.05
2022-11-21T15:35:35.902Z,-0.10
2022-11-21T15:38:02.965Z,-0.15
2022-11-21T15:40:29.837Z,-0.14
2022-11-21T15:42:56.447Z,-0.20
2022-11-21T15:45:25.761Z,-0.17
2022-11-21T15:47:52.773Z,-0.22
2022-11-21T15:50:22.764Z,-0.17
2022-11-21T15:52:51.418Z,-0.22
2022-11-21T15:55:29.410Z,-0.17
2022-11-21T15:57:56.161Z,-0.17
2022-11-21T16:00:22.995Z,-0.17
2022-11-21T16:02:49.649Z,-0.21
2022-11-21T16:05:16.761Z,-0.20
2022-11-21T16:07:43.339Z,-0.21
2022-11-21T16:10:18.255Z,-0.24
2022-11-21T16:12:47.904Z,-0.26
2022-11-21T16:15:14.576Z,-0.32
2022-11-21T16:17:41.715Z,-0.32
2022-11-21T16:20:08.804Z,-0.26
2022-11-21T16:22:41.464Z,-0.35
2022-11-21T16:25:10.917Z,-0.41
2022-11-21T16:27:37.407Z,-0.36
2022-11-21T16:30:04.238Z,-0.39
2022-11-21T16:32:30.678Z,-0.35
2022-11-21T16:34:58.308Z,-0.43
2022-11-21T16:37:25.009Z,-0.50
2022-11-21T16:39:54.443Z,-0.54
2022-11-21T16:42:20.926Z,-0.59
2022-11-21T16:44:48.132Z,-0.62
2022-11-21T16:47:15.023Z,-0.60
2022-11-21T16:49:48.483Z,-0.65
2022-11-21T16:52:15.572Z,-0.62
2022-11-21T16:54:42.258Z,-0.66
2022-11-21T16:57:08.772Z,-0.66
2022-11-21T16:59:37.686Z,-0.65
2022-11-21T17:02:04.215Z,-0.66
2022-11-21T17:04:31.026Z,-0.66
2022-11-21T17:06:57.876Z,-0.67
2022-11-21T17:09:24.609Z,-0.64
2022-11-21T17:11:51.283Z,-0.62
2022-11-21T17:14:17.726Z,-0.64
2022-11-21T17:16:45.792Z,-0.60
2022-11-21T17:19:12.649Z,-0.57
2022-11-21T17:21:39.186Z,-0.56
2022-11-21T17:24:06.031Z,-0.59
2022-11-21T17:26:36.110Z,-0.52
2022-11-21T17:29:05.776Z,-0.52
2022-11-21T17:31:32.581Z,-0.50
2022-11-21T17:34:00.691Z,-0.52
2022-11-21T17:36:29.120Z,-0.44
2022-11-21T17:38:55.925Z,-0.45
2022-11-21T17:41:23.774Z,-0.45
2022-11-21T17:43:53.984Z,-0.42
2022-11-21T17:46:20.612Z,-0.42
2022-11-21T17:48:54.636Z,-0.32
2022-11-21T17:51:25.574Z,-0.32
2022-11-21T17:53:52.581Z,-0.32
2022-11-21T17:56:21.466Z,-0.25
2022-11-21T17:58:48.315Z,-0.26
2022-11-21T18:01:19.469Z,-0.22
2022-11-21T18:03:47.665Z,-0.24
2022-11-21T18:06:16.220Z,-0.15
2022-11-21T18:08:44.315Z,-0.20
2022-11-21T18:11:12.728Z,-0.17
2022-11-21T18:13:39.766Z,-0.18
2022-11-21T18:16:08.584Z,-0.17
2022-11-21T18:18:36.191Z,-0.16
2022-11-21T18:21:04.365Z,-0.10
2022-11-21T18:23:31.151Z,-0.13
2022-11-21T18:26:09.693Z,0.09
2022-11-21T18:28:36.179Z,-0.02
2022-11-21T18:31:23.272Z,-0.01
2022-11-21T18:33:52.082Z,-0.15
2022-11-21T18:36:19.198Z,-0.16
2022-11-21T18:38:49.573Z,-0.18
2022-11-21T18:41:28.304Z,-0.04
2022-11-21T18:43:59.498Z,-0.04
2022-11-21T18:46:27.741Z,-0.08
2022-11-21T18:49:02.807Z,-0.02
2022-11-21T18:51:32.003Z,-0.02
2022-11-21T18:54:00.408Z,-0.01
2022-11-21T18:56:27.071Z,-0.01
2022-11-21T18:58:58.388Z,0.13
2022-11-21T19:01:27.996Z,0.14
2022-11-21T19:03:55.246Z,0.23
2022-11-21T19:06:23.255Z,0.14
2022-11-21T19:08:53.124Z,0.24
2022-11-21T19:11:20.601Z,0.15
2022-11-21T19:13:47.928Z,0.05
2022-11-21T19:16:17.236Z,0.24
2022-11-21T19:18:48.486Z,0.22
2022-11-21T19:21:21.980Z,0.14
2022-11-21T19:23:49.073Z,0.18
2022-11-21T19:26:18.286Z,0.25
2022-11-21T19:28:45.589Z,0.32
2022-11-21T19:31:14.769Z,0.31
2022-11-21T19:33:41.744Z,0.30
2022-11-21T19:36:19.521Z,0.28
2022-11-21T19:38:50.667Z,0.25
2022-11-21T19:41:21.060Z,0.32
2022-11-21T19:43:51.238Z,0.38
2022-11-21T19:46:23.185Z,0.30
2022-11-21T19:48:51.085Z,0.32
2022-11-21T19:51:18.508Z,0.37
2022-11-21T19:53:45.674Z,0.33
2022-11-21T19:56:20.400Z,0.38
2022-11-21T19:58:47.931Z,0.37
2022-11-21T20:01:20.160Z,0.40
2022-11-21T20:03:49.799Z,0.43
2022-11-21T20:06:24.746Z,0.39
2022-11-21T20:08:55.906Z,0.36
2022-11-21T20:11:23.381Z,0.44
2022-11-21T20:13:50.932Z,0.22
2022-11-21T20:16:19.370Z,0.36
2022-11-21T20:18:46.455Z,0.24
2022-11-21T20:21:13.582Z,0.29
2022-11-21T20:23:40.389Z,0.35
2022-11-21T20:26:08.120Z,0.37
2022-11-21T20:28:36.892Z,0.35
2022-11-21T20:31:11.656Z,0.33
2022-11-21T20:33:39.953Z,0.28
2022-11-21T20:36:11.265Z,0.26
2022-11-21T20:38:37.993Z,0.20
2022-11-21T20:41:05.164Z,0.12
2022-11-21T20:43:59.509Z,0.06
2022-11-21T20:46:20.664Z,0.14
2022-11-21T20:48:47.787Z,0.14
2022-11-21T20:52:43.328Z,0.20
2022-11-21T20:54:03.631Z,0.13
2022-11-21T20:56:35.188Z,0.15
2022-11-21T20:59:01.858Z,0.06
2022-11-21T21:01:28.613Z,0.11
2022-11-21T21:03:55.485Z,0.15
2022-11-21T21:06:24.167Z,0.24
2022-11-21T21:08:51.627Z,0.17
2022-11-21T21:11:49.760Z,0.18
2022-11-21T21:14:07.940Z,0.16
2022-11-21T21:16:36.205Z,0.22
2022-11-21T21:19:02.700Z,0.11
2022-11-21T21:21:30.848Z,0.02
2022-11-21T21:24:02.125Z,0.05
2022-11-21T21:26:30.761Z,0.18
2022-11-21T21:28:58.324Z,0.16
2022-11-21T21:31:24.924Z,0.11
2022-11-21T21:33:51.891Z,0.12
2022-11-21T21:36:20.944Z,0.10
2022-11-21T21:38:54.724Z,0.10
2022-11-21T21:41:22.143Z,0.08
2022-11-21T21:43:49.919Z,0.20
2022-11-21T21:46:18.102Z,0.22
2022-11-21T21:48:45.335Z,0.27
2022-11-21T21:51:21.904Z,0.32
2022-11-21T21:53:50.103Z,0.12
2022-11-21T21:56:18.600Z,0.12
2022-11-21T21:58:46.130Z,0.01
2022-11-21T22:01:32.398Z,0.08
2022-11-21T22:04:00.960Z,0.10
2022-11-21T22:06:28.216Z,0.01
2022-11-21T22:08:55.099Z,-0.08
2022-11-21T22:11:23.991Z,-0.05
2022-11-21T22:13:58.851Z,-0.04
2022-11-21T22:16:25.550Z,0.04
2022-11-21T22:18:52.397Z,0.15
2022-11-21T22:21:24.568Z,0.00
2022-11-21T22:24:22.919Z,-0.03
2022-11-21T22:26:37.930Z,0.07
2022-11-21T22:29:04.589Z,0.11
2022-11-21T22:31:32.051Z,0.27
2022-11-21T22:33:58.860Z,0.21
2022-11-21T22:36:25.468Z,0.17
2022-11-21T22:38:56.046Z,0.19
2022-11-21T22:41:24.724Z,0.14
2022-11-21T22:43:53.370Z,0.25
2022-11-21T22:46:20.534Z,0.25
2022-11-21T22:48:47.740Z,0.30
2022-11-21T22:51:17.124Z,0.08
2022-11-21T22:53:45.904Z,0.10
2022-11-21T22:56:12.964Z,0.10
2022-11-21T22:58:40.430Z,0.22
2022-11-21T23:01:10.012Z,0.12
2022-11-21T23:03:36.763Z,0.27
2022-11-21T23:06:04.746Z,0.23
2022-11-21T23:08:31.719Z,0.26
2022-11-21T23:11:08.217Z,0.26
2022-11-21T23:13:35.879Z,0.27
2022-11-21T23:16:03.368Z,0.32
2022-11-21T23:18:30.522Z,0.29
2022-11-21T23:20:57.141Z,0.33
2022-11-21T23:23:23.767Z,0.36
2022-11-21T23:25:50.300Z,0.28
2022-11-21T23:28:16.860Z,0.30
2022-11-21T23:30:44.841Z,0.37
2022-11-21T23:33:11.855Z,0.33
2022-11-21T23:35:38.414Z,0.39
2022-11-21T23:38:05.020Z,0.26
2022-11-21T23:40:31.676Z,0.06
2022-11-21T23:42:58.233Z,0.09
2022-11-21T23:45:24.868Z,0.09
2022-11-21T23:47:51.706Z,0.12
2022-11-21T23:50:19.476Z,0.03
2022-11-21T23:52:46.568Z,0.02
2022-11-21T23:55:13.272Z,0.00
2022-11-21T23:57:39.899Z,0.03
